Time;durP1;ratioP1;P1;durP2;ratioP2;P2;SDS_P1;SDS_P2;PMS_P1;PMS_P2;Temp;Humidity;BMP_temperature;BMP_pressure;BME280_temperature;BME280_humidity;BME280_pressure;Samples;Min_cycle;Max_cycle;Signal;HPM_P1;HPM_P2
2021/09/13 00:00:20;;;;;;;5.38;4.80;;;15.70;99.90;;;;;;4956335;28;20552;-74
2021/09/13 00:02:47;;;;;;;5.00;4.60;;;15.70;99.90;;;;;;4956553;28;20292;-74
2021/09/13 00:05:14;;;;;;;5.23;4.50;;;15.80;99.90;;;;;;4956219;28;20500;-73
2021/09/13 00:07:41;;;;;;;6.70;5.07;;;15.70;99.90;;;;;;4956325;28;20477;-74
2021/09/13 00:10:09;;;;;;;5.65;5.15;;;15.70;99.90;;;;;;4955898;28;20500;-77
2021/09/13 00:12:36;;;;;;;5.23;4.83;;;15.60;99.90;;;;;;4956469;28;20217;-75
2021/09/13 00:15:03;;;;;;;6.35;4.72;;;15.60;99.90;;;;;;4957254;28;20539;-75
2021/09/13 00:17:32;;;;;;;5.53;5.13;;;15.60;99.90;;;;;;4957847;28;20298;-76
2021/09/13 00:19:59;;;;;;;5.90;4.75;;;15.60;99.90;;;;;;4962443;28;20458;-76
2021/09/13 00:22:26;;;;;;;5.40;4.90;;;15.60;99.90;;;;;;4958397;28;20217;-74
2021/09/13 00:24:52;;;;;;;6.20;5.70;;;15.60;99.90;;;;;;4960984;28;20478;-75
2021/09/13 00:27:19;;;;;;;6.40;5.80;;;15.50;99.90;;;;;;4961684;28;20305;-74
2021/09/13 00:29:46;;;;;;;5.23;4.73;;;15.50;99.90;;;;;;4956771;28;20261;-74
2021/09/13 00:32:13;;;;;;;5.50;5.10;;;15.40;99.90;;;;;;4956125;28;20497;-75
2021/09/13 00:34:41;;;;;;;5.70;5.20;;;15.40;99.90;;;;;;4957015;28;20483;-75
2021/09/13 00:37:08;;;;;;;6.10;5.60;;;15.30;99.90;;;;;;4956363;28;20240;-75
2021/09/13 00:39:35;;;;;;;6.37;4.97;;;15.30;99.90;;;;;;4956617;28;20478;-76
2021/09/13 00:42:02;;;;;;;6.07;5.32;;;15.30;99.90;;;;;;4956224;28;20615;-76
2021/09/13 00:44:29;;;;;;;5.93;5.33;;;15.30;99.90;;;;;;4955988;28;20326;-75
2021/09/13 00:46:56;;;;;;;5.87;5.27;;;15.20;99.90;;;;;;4956203;28;20519;-76
2021/09/13 00:49:23;;;;;;;6.30;5.80;;;15.20;99.90;;;;;;4955581;28;20545;-76
2021/09/13 00:51:53;;;;;;;5.72;5.22;;;15.10;99.90;;;;;;4955772;28;20241;-75
2021/09/13 00:54:20;;;;;;;5.57;4.90;;;15.20;99.90;;;;;;4956169;28;20326;-76
2021/09/13 00:56:47;;;;;;;5.68;5.18;;;15.10;99.90;;;;;;4956121;28;20638;-76
2021/09/13 00:59:15;;;;;;;9.35;5.75;;;15.20;99.90;;;;;;4956262;28;20244;-76
2021/09/13 01:01:42;;;;;;;5.47;5.00;;;15.10;99.90;;;;;;4955589;28;20217;-74
2021/09/13 01:04:09;;;;;;;5.60;5.10;;;15.10;99.90;;;;;;4955724;28;20498;-75
2021/09/13 01:06:35;;;;;;;7.00;5.00;;;15.10;99.90;;;;;;4955926;28;20238;-76
2021/09/13 01:09:04;;;;;;;5.72;5.32;;;15.10;99.90;;;;;;4955047;28;20302;-76
2021/09/13 01:11:31;;;;;;;6.90;5.85;;;15.00;99.90;;;;;;4955575;28;20320;-76
2021/09/13 01:13:58;;;;;;;6.28;5.68;;;15.10;99.90;;;;;;4955616;28;20318;-76
2021/09/13 01:16:25;;;;;;;6.57;5.22;;;15.00;99.90;;;;;;4955249;28;20214;-76
2021/09/13 01:18:52;;;;;;;6.00;5.50;;;15.00;99.90;;;;;;4954837;28;20292;-75
2021/09/13 01:21:19;;;;;;;6.22;5.13;;;15.00;99.90;;;;;;4955473;28;20245;-76
2021/09/13 01:23:47;;;;;;;6.37;5.87;;;15.00;99.90;;;;;;4954910;28;20757;-76
2021/09/13 01:26:14;;;;;;;9.10;5.75;;;14.90;99.90;;;;;;4954881;28;20441;-75
2021/09/13 01:28:41;;;;;;;5.60;5.20;;;15.00;99.90;;;;;;4954908;28;20300;-76
2021/09/13 01:31:08;;;;;;;7.00;6.07;;;14.90;99.90;;;;;;4954961;28;20214;-76
2021/09/13 01:33:35;;;;;;;6.67;6.07;;;14.90;99.90;;;;;;4954954;28;20293;-76
2021/09/13 01:36:02;;;;;;;7.50;6.80;;;14.90;99.90;;;;;;4954751;28;20837;-76
2021/09/13 01:38:32;;;;;;;6.80;6.10;;;14.90;99.90;;;;;;4954502;28;20609;-76
2021/09/13 01:41:00;;;;;;;8.05;6.85;;;14.80;99.90;;;;;;4955558;28;20241;-78
2021/09/13 01:43:27;;;;;;;7.47;6.78;;;14.80;99.90;;;;;;4955752;28;20724;-76
2021/09/13 01:45:54;;;;;;;7.18;6.47;;;14.80;99.90;;;;;;4956709;28;20241;-77
2021/09/13 01:48:21;;;;;;;6.80;6.13;;;14.70;99.90;;;;;;4958081;28;20221;-77
2021/09/13 01:50:48;;;;;;;6.55;5.95;;;14.70;99.90;;;;;;4960281;28;20300;-77
2021/09/13 01:53:15;;;;;;;7.22;6.63;;;14.60;99.90;;;;;;4961832;28;20233;-75
2021/09/13 01:55:42;;;;;;;7.00;6.40;;;14.60;99.90;;;;;;4959428;28;20313;-75
2021/09/13 01:58:10;;;;;;;7.25;6.65;;;14.60;99.90;;;;;;4957730;28;20309;-76
2021/09/13 02:00:37;;;;;;;7.10;6.50;;;14.60;99.90;;;;;;4972426;28;20217;-76
2021/09/13 02:03:04;;;;;;;7.30;6.70;;;14.60;99.90;;;;;;4965931;28;20239;-75
2021/09/13 02:05:31;;;;;;;7.53;6.93;;;14.50;99.90;;;;;;4972647;28;20233;-75
2021/09/13 02:07:58;;;;;;;6.88;6.15;;;14.50;99.90;;;;;;4971505;28;20248;-76
2021/09/13 02:10:25;;;;;;;7.75;6.97;;;14.50;99.90;;;;;;4956295;28;20309;-76
2021/09/13 02:12:52;;;;;;;7.63;6.78;;;14.50;99.90;;;;;;4956562;28;20220;-76
2021/09/13 02:15:20;;;;;;;7.90;7.10;;;14.50;99.90;;;;;;4956737;28;20316;-77
2021/09/13 02:17:47;;;;;;;7.40;6.78;;;14.40;99.90;;;;;;4956693;28;20309;-76
2021/09/13 02:20:15;;;;;;;7.97;7.28;;;14.40;99.90;;;;;;4956936;28;20248;-77
2021/09/13 02:22:42;;;;;;;10.23;8.10;;;14.50;99.90;;;;;;4961168;28;20213;-75
2021/09/13 02:25:10;;;;;;;8.52;7.00;;;14.40;99.90;;;;;;4968258;28;20230;-76
2021/09/13 02:27:37;;;;;;;10.15;7.38;;;14.40;99.90;;;;;;4970843;28;20263;-77
2021/09/13 02:30:04;;;;;;;8.40;7.60;;;14.40;99.90;;;;;;4963316;28;20237;-75
2021/09/13 02:32:33;;;;;;;7.97;7.28;;;14.30;99.90;;;;;;4964710;28;20694;-75
2021/09/13 02:35:04;;;;;;;8.80;8.00;;;14.40;99.90;;;;;;4958201;28;20784;-77
2021/09/13 02:37:32;;;;;;;7.75;7.05;;;14.30;99.90;;;;;;4959919;28;20213;-76
2021/09/13 02:39:59;;;;;;;8.55;7.85;;;14.30;99.90;;;;;;4958626;28;20309;-77
2021/09/13 02:42:26;;;;;;;7.90;7.25;;;14.30;99.90;;;;;;4955582;28;20270;-78
2021/09/13 02:44:53;;;;;;;8.75;7.95;;;14.30;99.90;;;;;;4955404;28;20238;-77
2021/09/13 02:47:20;;;;;;;9.35;8.48;;;14.20;99.90;;;;;;4960394;28;20277;-76
2021/09/13 02:49:48;;;;;;;7.40;6.80;;;14.20;99.90;;;;;;4968417;28;20214;-76
2021/09/13 02:52:15;;;;;;;8.05;7.30;;;14.20;99.90;;;;;;4967714;28;20277;-76
2021/09/13 02:54:42;;;;;;;7.95;7.25;;;14.20;99.90;;;;;;4973243;28;20233;-76
2021/09/13 02:57:09;;;;;;;8.55;7.70;;;14.20;99.90;;;;;;4970941;28;20213;-76
2021/09/13 02:59:36;;;;;;;8.43;7.63;;;14.10;99.90;;;;;;4964584;28;20296;-76
2021/09/13 03:02:03;;;;;;;9.68;7.10;;;14.10;99.90;;;;;;4959357;28;20281;-75
2021/09/13 03:04:30;;;;;;;7.85;7.05;;;14.10;99.90;;;;;;4959076;28;20229;-76
2021/09/13 03:06:58;;;;;;;8.40;7.18;;;14.10;99.90;;;;;;4959792;28;20213;-76
2021/09/13 03:09:25;;;;;;;7.57;6.85;;;14.20;99.90;;;;;;4959053;28;20243;-76
2021/09/13 03:11:52;;;;;;;7.28;6.68;;;14.10;99.90;;;;;;4958940;28;20217;-76
2021/09/13 03:14:19;;;;;;;6.75;6.15;;;14.10;99.90;;;;;;4958501;28;20285;-76
2021/09/13 03:16:47;;;;;;;7.93;7.13;;;14.10;99.90;;;;;;4958260;28;20214;-75
2021/09/13 03:19:14;;;;;;;7.18;6.57;;;14.00;99.90;;;;;;4962183;28;20641;-75
2021/09/13 03:21:41;;;;;;;7.05;6.45;;;14.00;99.90;;;;;;4963076;28;20217;-76
2021/09/13 03:24:09;;;;;;;7.13;6.63;;;14.00;99.90;;;;;;4960876;28;20301;-76
2021/09/13 03:26:36;;;;;;;7.75;7.07;;;13.90;99.90;;;;;;4962662;28;20222;-75
2021/09/13 03:29:04;;;;;;;7.20;6.55;;;13.90;99.90;;;;;;4960306;28;20214;-76
2021/09/13 03:31:31;;;;;;;8.68;7.00;;;13.90;99.90;;;;;;4958652;28;20629;-75
2021/09/13 03:33:58;;;;;;;7.20;6.70;;;13.80;99.90;;;;;;4971546;28;20249;-76
2021/09/13 03:36:25;;;;;;;7.75;7.15;;;13.90;99.90;;;;;;4974615;28;20252;-76
2021/09/13 03:38:51;;;;;;;8.63;7.18;;;13.80;99.90;;;;;;4960894;28;20308;-77
2021/09/13 03:41:20;;;;;;;8.15;7.50;;;13.80;99.90;;;;;;4958025;28;20221;-75
2021/09/13 03:43:46;;;;;;;7.57;6.95;;;13.70;99.90;;;;;;4957312;28;20226;-76
2021/09/13 03:46:13;;;;;;;8.40;7.60;;;13.70;99.90;;;;;;4958144;28;20644;-75
2021/09/13 03:48:40;;;;;;;7.85;6.90;;;13.70;99.90;;;;;;4957569;28;20720;-75
2021/09/13 03:51:07;;;;;;;8.57;7.72;;;13.60;99.90;;;;;;4957681;28;20210;-76
2021/09/13 03:53:34;;;;;;;9.38;7.70;;;13.60;99.90;;;;;;4958126;28;20210;-77
2021/09/13 03:56:01;;;;;;;9.27;7.00;;;13.60;99.90;;;;;;4958380;28;20217;-76
2021/09/13 03:58:30;;;;;;;8.07;7.28;;;13.60;99.90;;;;;;4957857;28;20214;-76
2021/09/13 04:00:57;;;;;;;8.65;7.95;;;13.60;99.90;;;;;;4957945;28;20653;-76
2021/09/13 04:03:29;;;;;;;8.75;8.05;;;13.60;99.90;;;;;;4958139;28;20229;-78
2021/09/13 04:05:58;;;;;;;8.98;8.18;;;13.60;99.90;;;;;;4959868;28;20217;-76
2021/09/13 04:11:21;;;;;;;8.25;7.55;;;13.70;99.90;;;;;;4927903;28;20205;-76
2021/09/13 04:13:49;;;;;;;8.70;8.00;;;13.70;99.90;;;;;;4960651;28;20216;-75
2021/09/13 04:16:16;;;;;;;8.75;7.90;;;13.70;99.90;;;;;;4964189;28;20295;-75
2021/09/13 04:18:43;;;;;;;8.43;7.72;;;13.60;99.90;;;;;;4962191;28;20206;-75
2021/09/13 04:21:10;;;;;;;8.75;7.85;;;13.60;99.90;;;;;;4975398;28;20217;-75
2021/09/13 04:23:37;;;;;;;8.30;7.60;;;13.60;99.90;;;;;;4970777;28;20218;-75
2021/09/13 04:26:04;;;;;;;10.30;7.15;;;13.60;99.90;;;;;;4978505;28;20308;-75
2021/09/13 04:28:31;;;;;;;7.78;7.15;;;13.60;99.90;;;;;;4976398;28;20237;-74
2021/09/13 04:31:00;;;;;;;9.77;8.13;;;13.60;99.90;;;;;;4963975;28;20220;-75
2021/09/13 04:33:26;;;;;;;8.73;7.90;;;13.60;99.90;;;;;;4960489;28;20238;-74
2021/09/13 04:35:54;;;;;;;7.88;7.18;;;13.70;99.90;;;;;;4959374;28;20304;-75
2021/09/13 04:38:21;;;;;;;7.75;7.05;;;13.70;99.90;;;;;;4969309;28;20292;-76
2021/09/13 04:40:47;;;;;;;7.43;6.88;;;13.80;99.90;;;;;;4972806;28;20249;-75
2021/09/13 04:43:14;;;;;;;8.20;7.50;;;13.80;99.90;;;;;;4979556;28;20197;-75
2021/09/13 04:45:41;;;;;;;8.70;8.00;;;13.80;99.90;;;;;;4974695;28;20272;-76
2021/09/13 04:48:10;;;;;;;7.50;6.90;;;13.90;99.90;;;;;;4958905;28;20220;-76
2021/09/13 04:50:37;;;;;;;8.02;7.32;;;13.90;99.90;;;;;;4962477;28;20221;-77
2021/09/13 04:53:04;;;;;;;7.95;7.15;;;13.90;99.90;;;;;;4965333;28;20261;-76
2021/09/13 04:55:31;;;;;;;7.20;6.53;;;13.90;99.90;;;;;;4963429;28;20372;-76
2021/09/13 04:57:57;;;;;;;9.73;8.82;;;13.90;99.90;;;;;;4959448;28;20230;-75
2021/09/13 05:00:24;;;;;;;8.40;7.70;;;13.90;99.90;;;;;;4957322;28;20286;-75
2021/09/13 05:02:51;;;;;;;8.65;7.95;;;14.00;99.90;;;;;;4957058;28;20214;-76
2021/09/13 05:05:20;;;;;;;9.05;8.35;;;14.00;99.90;;;;;;4957734;28;20587;-77
2021/09/13 05:07:47;;;;;;;9.30;8.50;;;13.90;99.90;;;;;;4958683;28;20218;-76
2021/09/13 05:10:14;;;;;;;8.82;8.02;;;13.90;99.90;;;;;;4956930;28;20249;-76
2021/09/13 05:12:40;;;;;;;8.68;7.85;;;13.90;99.90;;;;;;4958838;28;20264;-76
2021/09/13 05:15:08;;;;;;;13.55;8.57;;;13.80;99.90;;;;;;4958223;28;20317;-75
2021/09/13 05:17:35;;;;;;;9.40;8.50;;;13.80;99.90;;;;;;4959246;28;20233;-77
2021/09/13 05:20:02;;;;;;;8.98;8.18;;;13.70;99.90;;;;;;4958030;28;20223;-77
2021/09/13 05:22:30;;;;;;;9.30;8.50;;;13.70;99.90;;;;;;4963103;28;20272;-75
2021/09/13 05:24:57;;;;;;;9.50;8.60;;;13.70;99.90;;;;;;4959105;28;20260;-76
2021/09/13 05:27:25;;;;;;;11.52;10.38;;;13.60;99.90;;;;;;4954794;29;20572;-76
2021/09/13 05:29:52;;;;;;;10.50;9.60;;;13.60;99.90;;;;;;4952432;29;20574;-75
2021/09/13 05:32:19;;;;;;;10.25;9.25;;;13.70;99.90;;;;;;4947510;29;20227;-76
2021/09/13 05:34:47;;;;;;;9.43;8.60;;;13.80;99.90;;;;;;4964233;28;20713;-75
2021/09/13 05:37:14;;;;;;;12.05;8.70;;;13.90;99.90;;;;;;4967163;28;20220;-75
2021/09/13 05:39:43;;;;;;;8.48;7.25;;;14.10;99.90;;;;;;4968442;28;20214;-76
2021/09/13 05:42:10;;;;;;;8.00;7.22;;;14.30;99.90;;;;;;4974083;28;20221;-76
2021/09/13 05:47:12;;;;;;;7.78;7.15;;;14.40;99.90;;;;;;5011565;28;20219;-75
2021/09/13 05:49:39;;;;;;;8.48;7.63;;;14.40;99.90;;;;;;5013294;28;20204;-75
2021/09/13 05:52:06;;;;;;;8.63;7.82;;;14.40;99.90;;;;;;5013597;28;20215;-75
2021/09/13 05:54:33;;;;;;;8.02;7.43;;;14.30;99.90;;;;;;5012586;28;20563;-75
2021/09/13 05:57:01;;;;;;;8.32;7.72;;;14.30;99.90;;;;;;5023680;28;20227;-75
2021/09/13 05:59:28;;;;;;;9.38;8.48;;;14.30;99.90;;;;;;5017945;28;20211;-74
2021/09/13 06:01:55;;;;;;;9.23;8.32;;;14.30;99.90;;;;;;5013984;28;20604;-75
2021/09/13 06:04:22;;;;;;;9.48;8.10;;;14.30;99.90;;;;;;5001660;28;20325;-75
2021/09/13 06:06:49;;;;;;;8.70;8.00;;;14.30;99.90;;;;;;5002429;28;20227;-75
2021/09/13 06:09:16;;;;;;;9.40;8.50;;;14.40;99.90;;;;;;5013180;28;20294;-76
2021/09/13 06:11:42;;;;;;;10.75;9.10;;;14.50;99.90;;;;;;5013571;28;20296;-76
2021/09/13 06:14:11;;;;;;;9.65;8.77;;;14.60;99.90;;;;;;5013777;28;20230;-75
2021/09/13 06:16:38;;;;;;;9.23;8.32;;;14.60;99.90;;;;;;5013419;28;20319;-75
2021/09/13 06:19:06;;;;;;;14.88;10.02;;;14.70;99.90;;;;;;5008022;28;20630;-76
2021/09/13 06:21:33;;;;;;;11.10;9.23;;;14.70;99.90;;;;;;4992767;28;20205;-76
2021/09/13 06:24:00;;;;;;;12.45;9.50;;;14.80;99.90;;;;;;4995652;28;20312;-74
2021/09/13 06:26:27;;;;;;;11.00;10.00;;;14.80;99.90;;;;;;5015132;28;20418;-77
2021/09/13 06:28:54;;;;;;;10.60;9.60;;;14.80;99.90;;;;;;5015406;28;20306;-75
2021/09/13 06:31:23;;;;;;;11.30;10.20;;;14.80;99.90;;;;;;5017416;28;20208;-75
2021/09/13 06:33:49;;;;;;;10.98;10.05;;;14.80;99.90;;;;;;5002332;28;20262;-75
2021/09/13 06:36:16;;;;;;;10.45;9.45;;;14.90;99.90;;;;;;5012346;28;20715;-74
2021/09/13 06:38:45;;;;;;;9.88;9.07;;;15.00;99.90;;;;;;5016925;28;20240;-76
2021/09/13 06:41:12;;;;;;;9.93;9.02;;;15.10;99.90;;;;;;5004227;28;20232;-75
2021/09/13 06:43:42;;;;;;;10.88;9.40;;;15.20;99.90;;;;;;4997030;28;20208;-74
2021/09/13 06:46:11;;;;;;;10.18;9.27;;;15.30;99.90;;;;;;4998224;28;20238;-73
2021/09/13 06:48:41;;;;;;;12.02;10.15;;;15.40;99.80;;;;;;5011800;28;20653;-71
2021/09/13 06:51:09;;;;;;;10.13;9.30;;;15.50;99.00;;;;;;5017058;28;20255;-74
2021/09/13 06:53:36;;;;;;;11.10;8.87;;;15.50;98.50;;;;;;5014946;28;20239;-73
2021/09/13 06:56:04;;;;;;;11.15;10.00;;;15.60;97.70;;;;;;5002145;28;20502;-73
2021/09/13 06:58:32;;;;;;;11.18;10.07;;;15.60;97.40;;;;;;5014976;28;20241;-73
2021/09/13 07:00:59;;;;;;;10.02;9.23;;;15.70;96.90;;;;;;5013463;28;20300;-74
2021/09/13 07:03:27;;;;;;;9.75;8.85;;;15.80;97.20;;;;;;4995192;28;20293;-75
2021/09/13 07:05:55;;;;;;;12.03;9.00;;;15.90;96.30;;;;;;4995189;28;20288;-75
2021/09/13 07:08:22;;;;;;;9.23;8.32;;;15.90;94.70;;;;;;4995746;28;20870;-73
2021/09/13 07:10:49;;;;;;;9.43;8.53;;;15.90;94.00;;;;;;4996860;28;20201;-73
2021/09/13 07:13:16;;;;;;;9.93;8.93;;;16.10;93.80;;;;;;4997263;28;20460;-75
2021/09/13 07:15:43;;;;;;;10.82;8.40;;;16.00;93.70;;;;;;4998685;28;20229;-73
2021/09/13 07:18:10;;;;;;;9.50;8.57;;;16.00;94.10;;;;;;5010382;28;20223;-77
2021/09/13 07:20:37;;;;;;;10.53;8.37;;;16.20;93.80;;;;;;5019090;28;20519;-74
2021/09/13 07:23:05;;;;;;;9.70;8.80;;;16.20;93.00;;;;;;5024713;28;20527;-75
2021/09/13 07:25:32;;;;;;;9.50;8.30;;;16.20;92.90;;;;;;5011153;28;20593;-73
2021/09/13 07:27:59;;;;;;;8.67;7.97;;;16.20;93.10;;;;;;5011148;28;20214;-77
2021/09/13 07:30:27;;;;;;;10.90;8.33;;;16.40;92.90;;;;;;5010947;28;20960;-74
2021/09/13 07:32:54;;;;;;;10.63;7.93;;;16.40;92.30;;;;;;5020072;28;20482;-73
2021/09/13 07:35:21;;;;;;;9.20;8.30;;;16.50;91.70;;;;;;5017918;28;20503;-75
2021/09/13 07:37:48;;;;;;;9.63;8.83;;;16.60;90.90;;;;;;5019360;28;20828;-73
2021/09/13 07:40:16;;;;;;;8.27;7.47;;;16.60;90.30;;;;;;5020375;28;21009;-73
2021/09/13 07:42:44;;;;;;;8.50;7.80;;;16.70;91.30;;;;;;5033396;28;20453;-74
2021/09/13 07:45:11;;;;;;;8.73;8.03;;;17.00;90.00;;;;;;5018825;28;20576;-74
2021/09/13 07:47:39;;;;;;;9.93;9.03;;;17.00;88.00;;;;;;5004107;28;20952;-75
2021/09/13 07:50:07;;;;;;;8.63;7.60;;;17.10;87.80;;;;;;5003758;28;20462;-73
2021/09/13 07:52:34;;;;;;;8.10;7.30;;;17.30;85.40;;;;;;5020270;28;20816;-74
2021/09/13 07:55:01;;;;;;;10.67;8.07;;;17.30;84.40;;;;;;5018586;28;20484;-76
2021/09/13 07:57:30;;;;;;;8.50;7.40;;;17.40;84.50;;;;;;5017433;28;20465;-73
2021/09/13 07:59:57;;;;;;;9.90;8.60;;;17.40;83.00;;;;;;5006816;28;20503;-74
2021/09/13 08:02:25;;;;;;;9.20;7.90;;;17.40;83.80;;;;;;4998357;28;20455;-74
2021/09/13 08:04:52;;;;;;;8.00;7.30;;;17.60;83.20;;;;;;5005567;28;20505;-73
2021/09/13 08:07:19;;;;;;;7.90;7.10;;;17.60;82.20;;;;;;5015837;28;20517;-73
2021/09/13 08:09:45;;;;;;;8.33;7.57;;;17.70;81.40;;;;;;5015514;28;20497;-74
2021/09/13 08:12:13;;;;;;;7.70;7.00;;;17.70;83.40;;;;;;5015926;28;20568;-74
2021/09/13 08:14:41;;;;;;;7.87;7.07;;;17.80;82.20;;;;;;5007777;28;20462;-74
2021/09/13 08:17:08;;;;;;;7.77;7.10;;;18.00;80.60;;;;;;4997231;28;20887;-73
2021/09/13 08:19:39;;;;;;;8.50;7.67;;;18.10;79.00;;;;;;5005009;28;20542;-73
2021/09/13 08:22:06;;;;;;;7.17;6.47;;;18.20;78.10;;;;;;5017981;28;20459;-74
2021/09/13 08:24:33;;;;;;;8.07;7.37;;;18.40;77.30;;;;;;5012297;28;20514;-76
2021/09/13 08:27:00;;;;;;;8.87;7.27;;;18.40;76.30;;;;;;5006249;28;20466;-73
2021/09/13 08:29:28;;;;;;;11.97;6.27;;;18.50;77.00;;;;;;5008169;28;20494;-75
2021/09/13 08:31:57;;;;;;;7.40;6.73;;;18.70;75.50;;;;;;5008497;28;20471;-75
2021/09/13 08:34:24;;;;;;;9.73;5.90;;;18.90;74.80;;;;;;5016907;28;20454;-72
2021/09/13 08:36:51;;;;;;;7.40;6.50;;;18.90;74.70;;;;;;5034613;28;20456;-76
2021/09/13 08:39:18;;;;;;;7.80;7.00;;;19.00;73.60;;;;;;5031523;28;20677;-73
2021/09/13 08:41:47;;;;;;;6.70;6.00;;;19.20;71.80;;;;;;5031353;28;20451;-74
2021/09/13 08:44:15;;;;;;;6.63;6.03;;;19.10;71.70;;;;;;5033779;28;20458;-74
2021/09/13 08:46:47;;;;;;;11.37;7.07;;;19.00;72.50;;;;;;5032711;28;20465;-74
2021/09/13 08:49:26;;;;;;;6.97;6.37;;;19.10;71.90;;;;;;5027757;28;20532;-74
2021/09/13 08:51:53;;;;;;;7.50;6.57;;;19.20;72.80;;;;;;5018128;28;20788;-74
2021/09/13 08:54:21;;;;;;;7.57;6.60;;;19.40;70.70;;;;;;5016437;28;20527;-75
2021/09/13 08:56:52;;;;;;;6.27;5.73;;;19.50;69.80;;;;;;5016771;28;20442;-75
2021/09/13 08:59:22;;;;;;;7.73;6.33;;;19.70;67.60;;;;;;5015477;28;20459;-76
2021/09/13 09:01:52;;;;;;;7.30;5.73;;;19.80;67.60;;;;;;5021495;28;20732;-75
2021/09/13 09:04:21;;;;;;;5.53;5.07;;;19.90;67.20;;;;;;5023633;28;20520;-76
2021/09/13 09:06:49;;;;;;;6.47;5.70;;;19.90;66.10;;;;;;5019053;28;20514;-79
2021/09/13 09:09:17;;;;;;;6.17;5.57;;;19.80;67.60;;;;;;5021623;28;20453;-78
2021/09/13 09:12:00;;;;;;;5.17;4.67;;;19.80;65.90;;;;;;5014159;28;20472;-78
2021/09/13 09:14:34;;;;;;;6.53;5.10;;;19.90;65.50;;;;;;4996688;28;20445;-77
2021/09/13 09:17:03;;;;;;;5.87;4.87;;;20.10;65.30;;;;;;5002039;28;20881;-79
2021/09/13 09:19:32;;;;;;;6.03;4.70;;;20.40;63.30;;;;;;5012808;28;20505;-78
2021/09/13 09:22:19;;;;;;;4.63;4.20;;;20.60;62.10;;;;;;5001776;28;20469;-79
2021/09/13 09:24:46;;;;;;;7.07;5.13;;;20.80;60.60;;;;;;5019511;28;20419;-78
2021/09/13 09:27:14;;;;;;;5.90;5.30;;;20.80;60.30;;;;;;5014155;28;20557;-78
2021/09/13 09:29:40;;;;;;;4.53;4.13;;;20.90;59.40;;;;;;5013519;28;20540;-77
2021/09/13 09:32:07;;;;;;;5.17;4.00;;;20.80;59.30;;;;;;5012476;28;20467;-77
2021/09/13 09:34:37;;;;;;;5.13;4.60;;;20.90;59.40;;;;;;5014757;28;20460;-77
2021/09/13 09:37:10;;;;;;;7.33;4.57;;;20.90;59.40;;;;;;5020121;28;20449;-77
2021/09/13 09:39:39;;;;;;;5.03;4.37;;;20.80;59.30;;;;;;5006985;28;20453;-77
2021/09/13 09:42:07;;;;;;;4.80;4.30;;;20.70;59.30;;;;;;5013502;28;20552;-77
2021/09/13 09:44:35;;;;;;;4.37;4.07;;;20.80;59.30;;;;;;5012913;28;20458;-78
2021/09/13 09:47:05;;;;;;;4.70;4.07;;;21.10;58.50;;;;;;5015197;28;20505;-78
2021/09/13 09:49:46;;;;;;;5.77;4.30;;;20.90;58.90;;;;;;4995303;28;20989;-78
2021/09/13 09:52:27;;;;;;;4.93;4.00;;;21.20;58.30;;;;;;5012400;28;20840;-78
2021/09/13 09:55:09;;;;;;;5.10;4.10;;;21.50;55.90;;;;;;5013556;28;20794;-78
2021/09/13 09:57:37;;;;;;;6.37;4.30;;;21.70;55.30;;;;;;5013456;28;20465;-79
2021/09/13 10:00:22;;;;;;;4.37;3.97;;;21.80;54.90;;;;;;5014239;28;20440;-77
2021/09/13 10:02:49;;;;;;;4.27;3.40;;;22.00;54.50;;;;;;5017710;28;20505;-77
2021/09/13 10:05:17;;;;;;;6.03;3.90;;;22.10;52.70;;;;;;5011265;28;20459;-78
2021/09/13 10:07:47;;;;;;;8.13;4.10;;;22.00;52.80;;;;;;5026146;28;20533;-79
2021/09/13 10:10:14;;;;;;;4.13;3.70;;;22.00;53.20;;;;;;5031616;28;20458;-78
2021/09/13 10:12:42;;;;;;;4.50;4.10;;;22.10;52.60;;;;;;5018877;28;20440;-79
2021/09/13 10:15:10;;;;;;;5.83;4.20;;;22.40;51.30;;;;;;5017721;28;20445;-78
2021/09/13 10:17:37;;;;;;;5.07;3.93;;;22.30;51.80;;;;;;5012975;28;20508;-78
2021/09/13 10:20:06;;;;;;;3.87;3.53;;;22.00;53.00;;;;;;5016097;28;20831;-77
2021/09/13 10:22:37;;;;;;;3.70;3.40;;;22.20;50.90;;;;;;5014988;28;20521;-77
2021/09/13 10:25:07;;;;;;;4.33;4.00;;;22.50;51.20;;;;;;4995540;28;20552;-79
2021/09/13 10:27:36;;;;;;;4.40;4.00;;;22.60;51.30;;;;;;4995225;28;20578;-78
2021/09/13 10:30:27;;;;;;;4.20;3.50;;;22.70;51.40;;;;;;4995429;28;20436;-77
2021/09/13 10:33:12;;;;;;;7.43;4.27;;;22.40;51.90;;;;;;4995110;28;20483;-79
2021/09/13 10:35:57;;;;;;;4.07;3.70;;;22.40;52.10;;;;;;5015504;28;20456;-77
2021/09/13 10:38:46;;;;;;;4.03;3.73;;;22.70;51.40;;;;;;4999148;28;20428;-76
2021/09/13 10:41:33;;;;;;;10.20;4.30;;;22.90;51.60;;;;;;4997060;28;20495;-78
2021/09/13 10:44:07;;;;;;;4.03;3.70;;;22.80;51.50;;;;;;4997696;28;20483;-78
2021/09/13 10:47:01;;;;;;;5.17;4.10;;;22.80;51.50;;;;;;4997004;28;20503;-75
2021/09/13 10:49:28;;;;;;;3.83;3.53;;;22.60;52.00;;;;;;4961640;28;20659;-76
2021/09/13 10:52:31;;;;;;;4.20;3.90;;;22.80;51.50;;;;;;4996267;28;20883;-77
2021/09/13 10:55:27;;;;;;;7.50;4.70;;;23.00;51.70;;;;;;4999835;28;20527;-79
2021/09/13 10:57:59;;;;;;;3.33;3.13;;;23.30;50.80;;;;;;4996874;28;20546;-78
2021/09/13 11:01:03;;;;;;;4.20;3.80;;;23.50;49.40;;;;;;5015211;28;20511;-78
2021/09/13 11:03:46;;;;;;;4.60;3.40;;;23.20;49.80;;;;;;5007039;28;20454;-79
2021/09/13 11:06:36;;;;;;;4.90;3.80;;;23.50;49.70;;;;;;5014628;28;20457;-80
2021/09/13 11:09:06;;;;;;;4.50;3.97;;;23.60;49.10;;;;;;5015146;28;20490;-79
2021/09/13 11:11:37;;;;;;;3.97;3.67;;;23.50;49.20;;;;;;5017608;28;20450;-79
2021/09/13 11:14:05;;;;;;;4.10;3.80;;;23.70;49.10;;;;;;5022891;28;20456;-78
2021/09/13 11:16:34;;;;;;;6.67;3.83;;;23.60;48.70;;;;;;5016737;28;20475;-77
2021/09/13 11:19:08;;;;;;;3.97;3.43;;;23.40;48.80;;;;;;5016199;28;20557;-78
2021/09/13 11:21:38;;;;;;;3.73;3.43;;;23.50;48.40;;;;;;5017717;28;20472;-78
2021/09/13 11:24:08;;;;;;;3.60;3.30;;;23.90;48.10;;;;;;5027229;28;20832;-78
2021/09/13 11:26:38;;;;;;;4.00;3.70;;;24.30;47.40;;;;;;5015534;28;20590;-78
2021/09/13 11:29:07;;;;;;;4.40;4.00;;;24.60;46.10;;;;;;5015438;28;20530;-79
2021/09/13 11:31:38;;;;;;;3.93;3.30;;;24.50;45.90;;;;;;5015898;28;20458;-78
2021/09/13 11:34:18;;;;;;;5.20;3.90;;;24.60;46.20;;;;;;5015639;28;20797;-79
2021/09/13 11:36:52;;;;;;;5.00;3.63;;;24.30;46.80;;;;;;5000802;28;20452;-79
2021/09/13 11:39:18;;;;;;;3.67;3.37;;;24.20;46.10;;;;;;5013423;28;20401;-78
2021/09/13 11:41:56;;;;;;;4.30;3.60;;;24.00;46.30;;;;;;4996800;28;21033;-80
2021/09/13 11:44:24;;;;;;;5.00;3.57;;;24.20;45.90;;;;;;4995733;28;20521;-79
2021/09/13 11:46:53;;;;;;;4.40;4.10;;;24.50;45.00;;;;;;4999151;28;20540;-77
2021/09/13 11:49:23;;;;;;;6.20;3.57;;;24.60;45.10;;;;;;4997571;28;20472;-77
2021/09/13 11:52:08;;;;;;;4.33;3.40;;;24.60;44.90;;;;;;4998329;28;20958;-77
2021/09/13 11:54:45;;;;;;;3.87;3.60;;;24.60;43.90;;;;;;5002801;28;20399;-77
2021/09/13 11:57:27;;;;;;;3.80;3.50;;;24.70;43.20;;;;;;4997598;28;20441;-76
2021/09/13 11:59:56;;;;;;;4.90;3.70;;;24.80;43.30;;;;;;4998675;28;20918;-76
2021/09/13 12:02:24;;;;;;;3.30;3.00;;;25.00;43.50;;;;;;4998811;28;20426;-77
2021/09/13 12:04:52;;;;;;;3.73;3.53;;;24.90;43.40;;;;;;4999390;28;20509;-76
2021/09/13 12:07:19;;;;;;;3.60;3.30;;;25.00;43.50;;;;;;5000476;28;20458;-75
2021/09/13 12:09:48;;;;;;;3.63;3.33;;;25.20;43.60;;;;;;5003354;28;20559;-76
2021/09/13 12:12:19;;;;;;;3.63;3.33;;;25.40;43.30;;;;;;5002858;28;20438;-76
2021/09/13 12:14:49;;;;;;;3.60;3.30;;;25.40;41.70;;;;;;4997485;28;20823;-76
2021/09/13 12:17:18;;;;;;;3.50;3.30;;;25.40;41.80;;;;;;4997601;28;20509;-76
2021/09/13 12:19:46;;;;;;;3.30;3.10;;;25.40;41.50;;;;;;4997283;28;20824;-77
2021/09/13 12:22:15;;;;;;;3.97;2.90;;;25.20;42.30;;;;;;4996753;28;20491;-76
2021/09/13 12:24:44;;;;;;;3.33;3.13;;;25.40;42.20;;;;;;4997575;28;20529;-76
2021/09/13 12:27:17;;;;;;;5.43;3.40;;;25.20;42.50;;;;;;4997702;28;20489;-76
2021/09/13 12:30:04;;;;;;;5.60;3.57;;;25.10;42.60;;;;;;4999687;28;20413;-76
2021/09/13 12:32:34;;;;;;;3.57;3.13;;;25.10;42.70;;;;;;5000596;28;20425;-76
2021/09/13 12:35:04;;;;;;;5.10;3.00;;;25.00;42.50;;;;;;5005139;28;20470;-76
2021/09/13 12:37:33;;;;;;;3.40;3.10;;;25.20;42.20;;;;;;5006149;28;20943;-75
2021/09/13 12:40:11;;;;;;;3.30;3.00;;;25.60;40.90;;;;;;5005099;28;20466;-76
2021/09/13 12:42:53;;;;;;;3.40;3.20;;;25.30;41.50;;;;;;5004194;28;20414;-77
2021/09/13 12:45:22;;;;;;;3.13;2.83;;;25.50;40.60;;;;;;5001753;28;20495;-77
2021/09/13 12:47:51;;;;;;;3.17;2.90;;;25.30;41.50;;;;;;4998637;28;20566;-76
2021/09/13 12:50:35;;;;;;;3.70;3.40;;;25.10;41.60;;;;;;4998067;28;20426;-76
2021/09/13 12:53:09;;;;;;;3.00;2.80;;;25.10;41.70;;;;;;4995991;28;20440;-76
2021/09/13 12:55:40;;;;;;;3.93;3.50;;;25.40;40.70;;;;;;5000302;28;20508;-76
2021/09/13 12:58:31;;;;;;;3.47;3.07;;;25.60;40.70;;;;;;4997355;28;20456;-76
2021/09/13 13:01:01;;;;;;;2.93;2.73;;;25.60;40.00;;;;;;5007933;28;20442;-76